sensor_id;sensor_type;location;lat;lon;timestamp;P1;durP1;ratioP1;P2;durP2;ratioP2
38557;SDS011;24333;42.626;23.308;2023-08-31T00:00:11;2.45;;;1.27;;
38557;SDS011;24333;42.626;23.308;2023-08-31T00:02:40;6.28;;;1.83;;
38557;SDS011;24333;42.626;23.308;2023-08-31T00:05:06;3.45;;;1.10;;
38557;SDS011;24333;42.626;23.308;2023-08-31T00:07:32;7.35;;;2.00;;
38557;SDS011;24333;42.626;23.308;2023-08-31T00:09:58;4.68;;;1.30;;
38557;SDS011;24333;42.626;23.308;2023-08-31T00:15:11;2.17;;;0.98;;
38557;SDS011;24333;42.626;23.308;2023-08-31T00:17:38;5.10;;;1.38;;
38557;SDS011;24333;42.626;23.308;2023-08-31T00:20:05;4.25;;;1.35;;
38557;SDS011;24333;42.626;23.308;2023-08-31T00:29:09;1.73;;;0.95;;
38557;SDS011;24333;42.626;23.308;2023-08-31T00:31:36;4.70;;;0.90;;
38557;SDS011;24333;42.626;23.308;2023-08-31T00:34:02;2.67;;;1.10;;
38557;SDS011;24333;42.626;23.308;2023-08-31T00:36:51;2.13;;;1.20;;
38557;SDS011;24333;42.626;23.308;2023-08-31T00:39:17;5.68;;;0.90;;
38557;SDS011;24333;42.626;23.308;2023-08-31T00:41:50;3.78;;;1.00;;
38557;SDS011;24333;42.626;23.308;2023-08-31T00:44:28;3.28;;;1.38;;
38557;SDS011;24333;42.626;23.308;2023-08-31T00:46:53;3.13;;;1.10;;
38557;SDS011;24333;42.626;23.308;2023-08-31T00:49:20;3.05;;;1.20;;
38557;SDS011;24333;42.626;23.308;2023-08-31T00:51:50;2.33;;;1.20;;
38557;SDS011;24333;42.626;23.308;2023-08-31T00:54:38;3.10;;;1.13;;
38557;SDS011;24333;42.626;23.308;2023-08-31T00:59:52;1.63;;;1.00;;
38557;SDS011;24333;42.626;23.308;2023-08-31T01:12:09;2.70;;;1.10;;
38557;SDS011;24333;42.626;23.308;2023-08-31T01:14:38;6.82;;;1.08;;
38557;SDS011;24333;42.626;23.308;2023-08-31T01:17:08;7.60;;;1.17;;
38557;SDS011;24333;42.626;23.308;2023-08-31T01:19:52;2.95;;;1.00;;
38557;SDS011;24333;42.626;23.308;2023-08-31T01:22:30;2.05;;;0.88;;
38557;SDS011;24333;42.626;23.308;2023-08-31T01:24:58;2.45;;;1.05;;
38557;SDS011;24333;42.626;23.308;2023-08-31T01:27:29;1.75;;;0.90;;
38557;SDS011;24333;42.626;23.308;2023-08-31T01:29:56;4.03;;;1.13;;
38557;SDS011;24333;42.626;23.308;2023-08-31T01:32:22;1.50;;;0.93;;
38557;SDS011;24333;42.626;23.308;2023-08-31T01:34:54;3.97;;;1.08;;
38557;SDS011;24333;42.626;23.308;2023-08-31T01:37:45;2.42;;;0.93;;
38557;SDS011;24333;42.626;23.308;2023-08-31T01:40:13;4.28;;;1.30;;
38557;SDS011;24333;42.626;23.308;2023-08-31T01:42:57;4.28;;;1.35;;
38557;SDS011;24333;42.626;23.308;2023-08-31T01:45:30;4.65;;;2.08;;
38557;SDS011;24333;42.626;23.308;2023-08-31T01:47:58;3.13;;;0.93;;
38557;SDS011;24333;42.626;23.308;2023-08-31T01:50:27;3.38;;;1.25;;
38557;SDS011;24333;42.626;23.308;2023-08-31T01:52:54;3.33;;;0.90;;
38557;SDS011;24333;42.626;23.308;2023-08-31T01:55:20;4.72;;;1.30;;
38557;SDS011;24333;42.626;23.308;2023-08-31T01:57:47;2.67;;;1.02;;
38557;SDS011;24333;42.626;23.308;2023-08-31T02:00:13;4.47;;;1.23;;
38557;SDS011;24333;42.626;23.308;2023-08-31T02:02:41;4.70;;;1.20;;
38557;SDS011;24333;42.626;23.308;2023-08-31T02:05:07;1.83;;;0.82;;
38557;SDS011;24333;42.626;23.308;2023-08-31T02:07:33;2.78;;;1.00;;
38557;SDS011;24333;42.626;23.308;2023-08-31T02:12:49;7.38;;;1.02;;
38557;SDS011;24333;42.626;23.308;2023-08-31T02:15:15;2.88;;;1.15;;
38557;SDS011;24333;42.626;23.308;2023-08-31T02:17:41;2.47;;;1.13;;
38557;SDS011;24333;42.626;23.308;2023-08-31T02:26:21;2.83;;;1.35;;
38557;SDS011;24333;42.626;23.308;2023-08-31T02:28:46;6.00;;;0.93;;
38557;SDS011;24333;42.626;23.308;2023-08-31T02:31:14;5.22;;;1.33;;
38557;SDS011;24333;42.626;23.308;2023-08-31T02:33:42;5.32;;;0.98;;
38557;SDS011;24333;42.626;23.308;2023-08-31T02:36:07;5.78;;;1.60;;
38557;SDS011;24333;42.626;23.308;2023-08-31T02:38:33;3.22;;;1.10;;
38557;SDS011;24333;42.626;23.308;2023-08-31T05:00:20;4.63;;;1.50;;
38557;SDS011;24333;42.626;23.308;2023-08-31T05:02:47;6.32;;;1.08;;
38557;SDS011;24333;42.626;23.308;2023-08-31T05:05:13;2.10;;;1.20;;
38557;SDS011;24333;42.626;23.308;2023-08-31T05:07:45;4.07;;;1.23;;
38557;SDS011;24333;42.626;23.308;2023-08-31T06:54:42;10.70;;;1.30;;
38557;SDS011;24333;42.626;23.308;2023-08-31T06:57:10;6.10;;;1.35;;
38557;SDS011;24333;42.626;23.308;2023-08-31T06:59:35;6.78;;;1.48;;
38557;SDS011;24333;42.626;23.308;2023-08-31T07:02:01;4.55;;;1.40;;
38557;SDS011;24333;42.626;23.308;2023-08-31T07:04:26;7.45;;;1.58;;
38557;SDS011;24333;42.626;23.308;2023-08-31T07:06:52;7.38;;;1.55;;
38557;SDS011;24333;42.626;23.308;2023-08-31T07:11:54;6.22;;;2.00;;
38557;SDS011;24333;42.626;23.308;2023-08-31T07:14:20;7.38;;;1.35;;
38557;SDS011;24333;42.626;23.308;2023-08-31T07:16:46;16.02;;;1.83;;
38557;SDS011;24333;42.626;23.308;2023-08-31T07:19:11;6.00;;;1.70;;
38557;SDS011;24333;42.626;23.308;2023-08-31T07:21:37;10.57;;;2.08;;
38557;SDS011;24333;42.626;23.308;2023-08-31T07:26:38;5.60;;;1.58;;
38557;SDS011;24333;42.626;23.308;2023-08-31T07:29:13;6.05;;;1.27;;
38557;SDS011;24333;42.626;23.308;2023-08-31T07:31:53;11.73;;;1.92;;
38557;SDS011;24333;42.626;23.308;2023-08-31T07:41:12;5.38;;;1.02;;
38557;SDS011;24333;42.626;23.308;2023-08-31T07:43:37;3.67;;;1.33;;
38557;SDS011;24333;42.626;23.308;2023-08-31T07:46:03;2.70;;;1.10;;
38557;SDS011;24333;42.626;23.308;2023-08-31T07:48:28;3.67;;;1.75;;
38557;SDS011;24333;42.626;23.308;2023-08-31T07:50:54;5.43;;;1.42;;
38557;SDS011;24333;42.626;23.308;2023-08-31T07:56:07;6.90;;;1.92;;
38557;SDS011;24333;42.626;23.308;2023-08-31T07:58:32;6.15;;;1.45;;
38557;SDS011;24333;42.626;23.308;2023-08-31T08:00:58;10.23;;;1.55;;
38557;SDS011;24333;42.626;23.308;2023-08-31T08:03:35;10.55;;;1.85;;
38557;SDS011;24333;42.626;23.308;2023-08-31T08:06:04;4.60;;;1.35;;
38557;SDS011;24333;42.626;23.308;2023-08-31T08:08:29;3.55;;;1.30;;
38557;SDS011;24333;42.626;23.308;2023-08-31T08:10:55;3.60;;;1.17;;
38557;SDS011;24333;42.626;23.308;2023-08-31T08:13:21;5.50;;;1.20;;
38557;SDS011;24333;42.626;23.308;2023-08-31T08:15:46;6.03;;;2.17;;
38557;SDS011;24333;42.626;23.308;2023-08-31T08:18:12;5.63;;;1.98;;
38557;SDS011;24333;42.626;23.308;2023-08-31T08:20:38;6.65;;;2.08;;
38557;SDS011;24333;42.626;23.308;2023-08-31T08:23:05;5.10;;;2.08;;
38557;SDS011;24333;42.626;23.308;2023-08-31T08:25:31;9.27;;;2.45;;
38557;SDS011;24333;42.626;23.308;2023-08-31T08:27:56;7.22;;;2.47;;
38557;SDS011;24333;42.626;23.308;2023-08-31T08:30:23;6.07;;;2.55;;
38557;SDS011;24333;42.626;23.308;2023-08-31T08:46:45;12.15;;;2.80;;
38557;SDS011;24333;42.626;23.308;2023-08-31T08:49:19;7.18;;;2.70;;
38557;SDS011;24333;42.626;23.308;2023-08-31T08:51:55;6.05;;;2.30;;
38557;SDS011;24333;42.626;23.308;2023-08-31T08:54:24;5.93;;;2.50;;
38557;SDS011;24333;42.626;23.308;2023-08-31T09:55:24;6.05;;;2.17;;
38557;SDS011;24333;42.626;23.308;2023-08-31T09:57:53;5.75;;;2.50;;
38557;SDS011;24333;42.626;23.308;2023-08-31T10:00:23;3.53;;;1.48;;
38557;SDS011;24333;42.626;23.308;2023-08-31T10:03:00;7.05;;;2.28;;
38557;SDS011;24333;42.626;23.308;2023-08-31T10:05:48;5.63;;;2.10;;
38557;SDS011;24333;42.626;23.308;2023-08-31T10:08:15;6.93;;;2.33;;
38557;SDS011;24333;42.626;23.308;2023-08-31T10:10:42;9.50;;;2.63;;
38557;SDS011;24333;42.626;23.308;2023-08-31T10:15:57;4.75;;;2.63;;
38557;SDS011;24333;42.626;23.308;2023-08-31T10:18:26;5.53;;;2.10;;
38557;SDS011;24333;42.626;23.308;2023-08-31T10:21:08;6.38;;;1.90;;
38557;SDS011;24333;42.626;23.308;2023-08-31T10:23:50;4.95;;;2.30;;
38557;SDS011;24333;42.626;23.308;2023-08-31T10:26:30;6.68;;;2.97;;
38557;SDS011;24333;42.626;23.308;2023-08-31T10:29:03;5.72;;;2.08;;
38557;SDS011;24333;42.626;23.308;2023-08-31T10:32:06;5.85;;;2.55;;
38557;SDS011;24333;42.626;23.308;2023-08-31T10:35:05;4.95;;;2.70;;
38557;SDS011;24333;42.626;23.308;2023-08-31T10:37:35;7.30;;;2.63;;
38557;SDS011;24333;42.626;23.308;2023-08-31T10:40:10;6.15;;;2.47;;
38557;SDS011;24333;42.626;23.308;2023-08-31T10:42:44;7.22;;;2.25;;
38557;SDS011;24333;42.626;23.308;2023-08-31T10:45:16;5.18;;;2.30;;
38557;SDS011;24333;42.626;23.308;2023-08-31T10:47:51;4.05;;;1.88;;
38557;SDS011;24333;42.626;23.308;2023-08-31T11:30:25;4.22;;;1.92;;
38557;SDS011;24333;42.626;23.308;2023-08-31T11:32:58;3.45;;;1.88;;
38557;SDS011;24333;42.626;23.308;2023-08-31T11:35:34;5.03;;;1.92;;
38557;SDS011;24333;42.626;23.308;2023-08-31T11:38:01;4.95;;;1.90;;
38557;SDS011;24333;42.626;23.308;2023-08-31T11:40:29;4.47;;;1.65;;
38557;SDS011;24333;42.626;23.308;2023-08-31T11:42:58;3.33;;;1.83;;
38557;SDS011;24333;42.626;23.308;2023-08-31T11:45:33;4.45;;;1.85;;
38557;SDS011;24333;42.626;23.308;2023-08-31T11:48:01;3.05;;;1.85;;
38557;SDS011;24333;42.626;23.308;2023-08-31T11:50:28;7.25;;;1.77;;
38557;SDS011;24333;42.626;23.308;2023-08-31T11:52:53;7.57;;;2.13;;
38557;SDS011;24333;42.626;23.308;2023-08-31T11:55:20;5.38;;;1.70;;
38557;SDS011;24333;42.626;23.308;2023-08-31T11:57:49;4.32;;;1.88;;
38557;SDS011;24333;42.626;23.308;2023-08-31T12:00:24;6.13;;;1.65;;
38557;SDS011;24333;42.626;23.308;2023-08-31T12:06:14;3.92;;;1.40;;
38557;SDS011;24333;42.626;23.308;2023-08-31T12:08:41;6.63;;;1.88;;
38557;SDS011;24333;42.626;23.308;2023-08-31T12:11:07;4.20;;;1.67;;
38557;SDS011;24333;42.626;23.308;2023-08-31T12:13:32;3.30;;;1.98;;
38557;SDS011;24333;42.626;23.308;2023-08-31T12:15:57;5.30;;;1.55;;
38557;SDS011;24333;42.626;23.308;2023-08-31T12:18:23;3.67;;;1.60;;
38557;SDS011;24333;42.626;23.308;2023-08-31T12:20:52;4.05;;;1.48;;
38557;SDS011;24333;42.626;23.308;2023-08-31T12:23:20;4.85;;;2.13;;
38557;SDS011;24333;42.626;23.308;2023-08-31T12:25:53;5.47;;;1.67;;
38557;SDS011;24333;42.626;23.308;2023-08-31T12:28:20;8.52;;;2.03;;
38557;SDS011;24333;42.626;23.308;2023-08-31T12:30:48;6.60;;;1.58;;
38557;SDS011;24333;42.626;23.308;2023-08-31T12:33:15;5.28;;;2.03;;
38557;SDS011;24333;42.626;23.308;2023-08-31T12:35:40;4.88;;;1.90;;
38557;SDS011;24333;42.626;23.308;2023-08-31T12:38:06;4.35;;;1.90;;
38557;SDS011;24333;42.626;23.308;2023-08-31T12:40:32;3.70;;;1.70;;
38557;SDS011;24333;42.626;23.308;2023-08-31T12:42:57;3.85;;;1.60;;
38557;SDS011;24333;42.626;23.308;2023-08-31T12:45:23;4.25;;;1.60;;
38557;SDS011;24333;42.626;23.308;2023-08-31T12:47:48;6.88;;;2.15;;
38557;SDS011;24333;42.626;23.308;2023-08-31T12:50:13;4.57;;;1.60;;
38557;SDS011;24333;42.626;23.308;2023-08-31T12:52:39;4.90;;;1.70;;
38557;SDS011;24333;42.626;23.308;2023-08-31T12:55:09;4.40;;;2.00;;
38557;SDS011;24333;42.626;23.308;2023-08-31T12:57:35;13.05;;;2.03;;
38557;SDS011;24333;42.626;23.308;2023-08-31T13:00:01;4.63;;;1.55;;
38557;SDS011;24333;42.626;23.308;2023-08-31T13:02:29;6.93;;;2.00;;
38557;SDS011;24333;42.626;23.308;2023-08-31T13:04:54;3.92;;;1.65;;
38557;SDS011;24333;42.626;23.308;2023-08-31T13:07:19;3.63;;;1.65;;
38557;SDS011;24333;42.626;23.308;2023-08-31T13:09:45;2.42;;;1.42;;
38557;SDS011;24333;42.626;23.308;2023-08-31T13:12:10;3.80;;;1.50;;
38557;SDS011;24333;42.626;23.308;2023-08-31T13:14:48;2.08;;;1.20;;
38557;SDS011;24333;42.626;23.308;2023-08-31T13:17:13;4.22;;;1.75;;
38557;SDS011;24333;42.626;23.308;2023-08-31T13:19:39;3.75;;;1.33;;
38557;SDS011;24333;42.626;23.308;2023-08-31T13:22:04;2.65;;;1.38;;
38557;SDS011;24333;42.626;23.308;2023-08-31T13:24:29;4.88;;;1.70;;
38557;SDS011;24333;42.626;23.308;2023-08-31T13:26:55;5.32;;;1.35;;
38557;SDS011;24333;42.626;23.308;2023-08-31T15:38:55;3.90;;;1.55;;
38557;SDS011;24333;42.626;23.308;2023-08-31T15:41:24;3.30;;;1.33;;
38557;SDS011;24333;42.626;23.308;2023-08-31T15:43:49;3.80;;;1.40;;
38557;SDS011;24333;42.626;23.308;2023-08-31T15:46:18;3.03;;;1.20;;
38557;SDS011;24333;42.626;23.308;2023-08-31T15:53:58;5.00;;;1.55;;
38557;SDS011;24333;42.626;23.308;2023-08-31T15:56:28;3.80;;;1.33;;
38557;SDS011;24333;42.626;23.308;2023-08-31T15:58:54;7.03;;;1.30;;
38557;SDS011;24333;42.626;23.308;2023-08-31T16:01:19;4.40;;;1.30;;
38557;SDS011;24333;42.626;23.308;2023-08-31T16:03:45;3.22;;;1.80;;
38557;SDS011;24333;42.626;23.308;2023-08-31T16:06:11;3.30;;;1.27;;
38557;SDS011;24333;42.626;23.308;2023-08-31T16:08:39;5.05;;;1.45;;
38557;SDS011;24333;42.626;23.308;2023-08-31T16:11:04;6.95;;;1.35;;
38557;SDS011;24333;42.626;23.308;2023-08-31T16:13:30;4.18;;;1.33;;
38557;SDS011;24333;42.626;23.308;2023-08-31T16:15:56;2.28;;;1.23;;
38557;SDS011;24333;42.626;23.308;2023-08-31T16:18:21;2.97;;;1.13;;
38557;SDS011;24333;42.626;23.308;2023-08-31T16:20:47;3.15;;;1.20;;
38557;SDS011;24333;42.626;23.308;2023-08-31T16:23:12;4.75;;;1.52;;
38557;SDS011;24333;42.626;23.308;2023-08-31T16:25:37;4.93;;;1.75;;
38557;SDS011;24333;42.626;23.308;2023-08-31T16:28:06;3.03;;;1.40;;
38557;SDS011;24333;42.626;23.308;2023-08-31T17:28:03;2.13;;;0.90;;
38557;SDS011;24333;42.626;23.308;2023-08-31T17:30:28;3.20;;;1.65;;
38557;SDS011;24333;42.626;23.308;2023-08-31T17:32:54;6.35;;;1.15;;
38557;SDS011;24333;42.626;23.308;2023-08-31T17:35:19;3.17;;;1.58;;
38557;SDS011;24333;42.626;23.308;2023-08-31T17:38:12;2.03;;;1.08;;
38557;SDS011;24333;42.626;23.308;2023-08-31T17:46:06;2.33;;;0.95;;
38557;SDS011;24333;42.626;23.308;2023-08-31T17:48:32;3.05;;;0.90;;
38557;SDS011;24333;42.626;23.308;2023-08-31T17:50:58;3.67;;;1.30;;
38557;SDS011;24333;42.626;23.308;2023-08-31T17:53:25;4.30;;;1.02;;
38557;SDS011;24333;42.626;23.308;2023-08-31T17:55:50;2.00;;;0.88;;
38557;SDS011;24333;42.626;23.308;2023-08-31T17:58:16;3.47;;;0.80;;
38557;SDS011;24333;42.626;23.308;2023-08-31T18:00:41;1.63;;;0.80;;
38557;SDS011;24333;42.626;23.308;2023-08-31T18:03:08;4.18;;;1.00;;
38557;SDS011;24333;42.626;23.308;2023-08-31T18:05:34;1.77;;;0.90;;
38557;SDS011;24333;42.626;23.308;2023-08-31T18:08:06;2.10;;;0.82;;
38557;SDS011;24333;42.626;23.308;2023-08-31T18:10:31;2.10;;;1.00;;
38557;SDS011;24333;42.626;23.308;2023-08-31T18:18:19;2.67;;;1.15;;
38557;SDS011;24333;42.626;23.308;2023-08-31T18:21:03;3.22;;;1.30;;
38557;SDS011;24333;42.626;23.308;2023-08-31T18:26:17;2.20;;;1.15;;
38557;SDS011;24333;42.626;23.308;2023-08-31T18:28:42;3.47;;;0.90;;
38557;SDS011;24333;42.626;23.308;2023-08-31T18:31:08;4.05;;;1.60;;
38557;SDS011;24333;42.626;23.308;2023-08-31T18:33:33;4.28;;;1.10;;
38557;SDS011;24333;42.626;23.308;2023-08-31T18:35:58;1.95;;;1.05;;
38557;SDS011;24333;42.626;23.308;2023-08-31T18:38:28;5.63;;;1.40;;
38557;SDS011;24333;42.626;23.308;2023-08-31T18:40:55;5.43;;;1.58;;
38557;SDS011;24333;42.626;23.308;2023-08-31T18:43:22;2.78;;;1.10;;
38557;SDS011;24333;42.626;23.308;2023-08-31T18:45:49;6.18;;;1.38;;
38557;SDS011;24333;42.626;23.308;2023-08-31T18:48:15;3.17;;;1.33;;
38557;SDS011;24333;42.626;23.308;2023-08-31T18:50:41;2.75;;;1.30;;
38557;SDS011;24333;42.626;23.308;2023-08-31T18:53:07;8.73;;;1.75;;
38557;SDS011;24333;42.626;23.308;2023-08-31T18:55:33;4.15;;;1.50;;
38557;SDS011;24333;42.626;23.308;2023-08-31T18:58:00;6.70;;;1.30;;
38557;SDS011;24333;42.626;23.308;2023-08-31T19:00:28;3.88;;;1.42;;
38557;SDS011;24333;42.626;23.308;2023-08-31T19:02:54;6.53;;;1.63;;
38557;SDS011;24333;42.626;23.308;2023-08-31T19:05:20;3.15;;;1.38;;
38557;SDS011;24333;42.626;23.308;2023-08-31T19:07:48;7.68;;;1.77;;
38557;SDS011;24333;42.626;23.308;2023-08-31T19:10:16;2.90;;;1.70;;
38557;SDS011;24333;42.626;23.308;2023-08-31T19:12:46;4.95;;;1.40;;
38557;SDS011;24333;42.626;23.308;2023-08-31T19:15:30;3.75;;;1.42;;
38557;SDS011;24333;42.626;23.308;2023-08-31T19:17:55;4.75;;;1.40;;
38557;SDS011;24333;42.626;23.308;2023-08-31T19:20:21;5.70;;;1.60;;
38557;SDS011;24333;42.626;23.308;2023-08-31T19:22:46;3.45;;;1.45;;
38557;SDS011;24333;42.626;23.308;2023-08-31T19:25:12;5.68;;;1.83;;
38557;SDS011;24333;42.626;23.308;2023-08-31T19:27:38;5.25;;;1.35;;
38557;SDS011;24333;42.626;23.308;2023-08-31T19:30:04;6.00;;;1.70;;
38557;SDS011;24333;42.626;23.308;2023-08-31T19:32:32;4.22;;;1.35;;
38557;SDS011;24333;42.626;23.308;2023-08-31T19:35:00;5.35;;;1.75;;
38557;SDS011;24333;42.626;23.308;2023-08-31T19:40:21;6.72;;;1.95;;
38557;SDS011;24333;42.626;23.308;2023-08-31T19:42:54;11.60;;;2.10;;
38557;SDS011;24333;42.626;23.308;2023-08-31T19:45:34;5.40;;;1.42;;
38557;SDS011;24333;42.626;23.308;2023-08-31T19:48:26;6.32;;;2.38;;
38557;SDS011;24333;42.626;23.308;2023-08-31T19:51:02;5.45;;;1.70;;
38557;SDS011;24333;42.626;23.308;2023-08-31T19:53:30;5.13;;;1.58;;
38557;SDS011;24333;42.626;23.308;2023-08-31T19:55:57;3.83;;;1.60;;
38557;SDS011;24333;42.626;23.308;2023-08-31T19:58:28;7.47;;;1.50;;
38557;SDS011;24333;42.626;23.308;2023-08-31T20:00:54;6.32;;;1.92;;
38557;SDS011;24333;42.626;23.308;2023-08-31T20:03:19;3.45;;;1.58;;
38557;SDS011;24333;42.626;23.308;2023-08-31T20:05:45;9.80;;;1.55;;
38557;SDS011;24333;42.626;23.308;2023-08-31T21:49:36;2.42;;;1.27;;
38557;SDS011;24333;42.626;23.308;2023-08-31T21:52:02;6.23;;;1.50;;
38557;SDS011;24333;42.626;23.308;2023-08-31T21:54:28;3.08;;;1.30;;
38557;SDS011;24333;42.626;23.308;2023-08-31T21:57:05;4.45;;;1.50;;
38557;SDS011;24333;42.626;23.308;2023-08-31T21:59:31;3.72;;;1.35;;
38557;SDS011;24333;42.626;23.308;2023-08-31T22:02:03;4.25;;;1.50;;
38557;SDS011;24333;42.626;23.308;2023-08-31T22:04:59;4.28;;;1.23;;
38557;SDS011;24333;42.626;23.308;2023-08-31T22:07:59;3.58;;;1.20;;
38557;SDS011;24333;42.626;23.308;2023-08-31T22:13:03;3.55;;;1.40;;
38557;SDS011;24333;42.626;23.308;2023-08-31T22:15:30;2.67;;;1.27;;
38557;SDS011;24333;42.626;23.308;2023-08-31T22:18:00;6.00;;;1.48;;
38557;SDS011;24333;42.626;23.308;2023-08-31T22:20:29;3.40;;;1.40;;
38557;SDS011;24333;42.626;23.308;2023-08-31T22:22:57;4.30;;;1.33;;
38557;SDS011;24333;42.626;23.308;2023-08-31T22:25:27;2.47;;;1.15;;
38557;SDS011;24333;42.626;23.308;2023-08-31T22:27:58;2.47;;;1.20;;
38557;SDS011;24333;42.626;23.308;2023-08-31T22:33:22;2.25;;;1.33;;
38557;SDS011;24333;42.626;23.308;2023-08-31T22:35:47;4.70;;;1.60;;
38557;SDS011;24333;42.626;23.308;2023-08-31T22:38:35;2.78;;;1.20;;
